sensor_id;sensor_type;location;lat;lon;timestamp;P1;durP1;ratioP1;P2;durP2;ratioP2
13799;SDS011;6971;50.028;9.258;2022-12-07T00:00:43;19.53;;;14.10;;
13799;SDS011;6971;50.028;9.258;2022-12-07T00:05:44;20.57;;;13.83;;
13799;SDS011;6971;50.028;9.258;2022-12-07T00:10:44;19.83;;;13.87;;
13799;SDS011;6971;50.028;9.258;2022-12-07T00:15:45;19.90;;;14.03;;
13799;SDS011;6971;50.028;9.258;2022-12-07T00:20:46;17.23;;;13.30;;
13799;SDS011;6971;50.028;9.258;2022-12-07T00:25:47;21.97;;;13.87;;
13799;SDS011;6971;50.028;9.258;2022-12-07T00:30:50;19.17;;;13.73;;
13799;SDS011;6971;50.028;9.258;2022-12-07T00:35:57;22.87;;;15.33;;
13799;SDS011;6971;50.028;9.258;2022-12-07T00:41:00;22.77;;;14.40;;
13799;SDS011;6971;50.028;9.258;2022-12-07T00:46:02;20.07;;;14.40;;
13799;SDS011;6971;50.028;9.258;2022-12-07T00:51:04;22.40;;;14.13;;
13799;SDS011;6971;50.028;9.258;2022-12-07T00:56:05;21.13;;;14.27;;
13799;SDS011;6971;50.028;9.258;2022-12-07T01:01:08;19.97;;;13.67;;
13799;SDS011;6971;50.028;9.258;2022-12-07T01:06:21;20.80;;;14.63;;
13799;SDS011;6971;50.028;9.258;2022-12-07T01:11:23;26.67;;;15.60;;
13799;SDS011;6971;50.028;9.258;2022-12-07T01:16:27;22.67;;;15.03;;
13799;SDS011;6971;50.028;9.258;2022-12-07T01:21:31;24.53;;;15.17;;
13799;SDS011;6971;50.028;9.258;2022-12-07T01:26:37;21.10;;;14.63;;
13799;SDS011;6971;50.028;9.258;2022-12-07T01:31:38;22.00;;;13.97;;
13799;SDS011;6971;50.028;9.258;2022-12-07T01:36:39;26.67;;;15.87;;
13799;SDS011;6971;50.028;9.258;2022-12-07T01:41:40;23.10;;;14.83;;
13799;SDS011;6971;50.028;9.258;2022-12-07T01:46:44;23.80;;;15.40;;
13799;SDS011;6971;50.028;9.258;2022-12-07T01:52:01;24.60;;;15.03;;
13799;SDS011;6971;50.028;9.258;2022-12-07T01:57:04;20.33;;;14.37;;
13799;SDS011;6971;50.028;9.258;2022-12-07T02:02:10;22.37;;;14.50;;
13799;SDS011;6971;50.028;9.258;2022-12-07T02:07:17;23.47;;;15.70;;
13799;SDS011;6971;50.028;9.258;2022-12-07T02:12:20;23.70;;;14.77;;
13799;SDS011;6971;50.028;9.258;2022-12-07T02:17:28;31.33;;;18.00;;
13799;SDS011;6971;50.028;9.258;2022-12-07T02:28:29;29.50;;;17.90;;
13799;SDS011;6971;50.028;9.258;2022-12-07T02:33:33;38.83;;;18.73;;
13799;SDS011;6971;50.028;9.258;2022-12-07T02:38:50;33.17;;;19.33;;
13799;SDS011;6971;50.028;9.258;2022-12-07T02:44:03;32.63;;;18.83;;
13799;SDS011;6971;50.028;9.258;2022-12-07T02:49:08;27.97;;;17.10;;
13799;SDS011;6971;50.028;9.258;2022-12-07T02:54:15;27.47;;;16.97;;
13799;SDS011;6971;50.028;9.258;2022-12-07T03:16:17;32.00;;;18.37;;
13799;SDS011;6971;50.028;9.258;2022-12-07T03:21:26;31.57;;;17.83;;
13799;SDS011;6971;50.028;9.258;2022-12-07T03:26:33;34.00;;;19.63;;
13799;SDS011;6971;50.028;9.258;2022-12-07T03:31:41;34.40;;;19.53;;
13799;SDS011;6971;50.028;9.258;2022-12-07T03:36:54;34.37;;;19.50;;
13799;SDS011;6971;50.028;9.258;2022-12-07T03:42:01;33.50;;;19.57;;
13799;SDS011;6971;50.028;9.258;2022-12-07T03:47:12;34.07;;;19.37;;
13799;SDS011;6971;50.028;9.258;2022-12-07T03:52:25;37.30;;;20.63;;
13799;SDS011;6971;50.028;9.258;2022-12-07T03:57:27;42.90;;;22.17;;
13799;SDS011;6971;50.028;9.258;2022-12-07T04:02:42;39.67;;;22.10;;
13799;SDS011;6971;50.028;9.258;2022-12-07T04:07:43;40.50;;;21.90;;
13799;SDS011;6971;50.028;9.258;2022-12-07T04:12:44;36.13;;;20.67;;
13799;SDS011;6971;50.028;9.258;2022-12-07T04:17:45;40.17;;;21.60;;
13799;SDS011;6971;50.028;9.258;2022-12-07T04:22:46;42.70;;;22.80;;
13799;SDS011;6971;50.028;9.258;2022-12-07T04:27:47;42.23;;;23.73;;
13799;SDS011;6971;50.028;9.258;2022-12-07T04:32:48;44.17;;;23.53;;
13799;SDS011;6971;50.028;9.258;2022-12-07T04:37:50;46.93;;;23.63;;
13799;SDS011;6971;50.028;9.258;2022-12-07T04:42:51;42.27;;;22.80;;
13799;SDS011;6971;50.028;9.258;2022-12-07T04:47:52;38.00;;;23.63;;
13799;SDS011;6971;50.028;9.258;2022-12-07T04:52:54;43.30;;;23.83;;
13799;SDS011;6971;50.028;9.258;2022-12-07T04:57:55;43.17;;;22.97;;
13799;SDS011;6971;50.028;9.258;2022-12-07T05:02:56;37.93;;;21.87;;
13799;SDS011;6971;50.028;9.258;2022-12-07T05:07:57;41.47;;;22.83;;
13799;SDS011;6971;50.028;9.258;2022-12-07T05:12:57;40.93;;;22.23;;
13799;SDS011;6971;50.028;9.258;2022-12-07T05:17:59;42.30;;;22.13;;
13799;SDS011;6971;50.028;9.258;2022-12-07T05:23:00;40.17;;;20.93;;
13799;SDS011;6971;50.028;9.258;2022-12-07T05:28:00;40.53;;;21.60;;
13799;SDS011;6971;50.028;9.258;2022-12-07T05:33:01;35.87;;;20.07;;
13799;SDS011;6971;50.028;9.258;2022-12-07T05:38:03;41.27;;;21.80;;
13799;SDS011;6971;50.028;9.258;2022-12-07T05:43:04;36.77;;;21.00;;
13799;SDS011;6971;50.028;9.258;2022-12-07T05:48:05;33.93;;;20.13;;
13799;SDS011;6971;50.028;9.258;2022-12-07T05:53:06;37.97;;;21.20;;
13799;SDS011;6971;50.028;9.258;2022-12-07T05:58:07;73.13;;;42.63;;
13799;SDS011;6971;50.028;9.258;2022-12-07T06:03:27;50.43;;;29.27;;
13799;SDS011;6971;50.028;9.258;2022-12-07T06:08:28;42.87;;;25.70;;
13799;SDS011;6971;50.028;9.258;2022-12-07T06:13:29;41.30;;;24.47;;
13799;SDS011;6971;50.028;9.258;2022-12-07T06:18:30;34.77;;;19.57;;
13799;SDS011;6971;50.028;9.258;2022-12-07T06:23:31;31.67;;;17.50;;
13799;SDS011;6971;50.028;9.258;2022-12-07T06:28:32;29.53;;;17.57;;
13799;SDS011;6971;50.028;9.258;2022-12-07T06:33:33;33.27;;;19.23;;
13799;SDS011;6971;50.028;9.258;2022-12-07T06:38:34;29.47;;;17.67;;
13799;SDS011;6971;50.028;9.258;2022-12-07T06:43:36;34.20;;;18.97;;
13799;SDS011;6971;50.028;9.258;2022-12-07T06:48:37;33.93;;;17.43;;
13799;SDS011;6971;50.028;9.258;2022-12-07T06:53:38;30.93;;;17.07;;
13799;SDS011;6971;50.028;9.258;2022-12-07T06:58:39;30.13;;;17.77;;
13799;SDS011;6971;50.028;9.258;2022-12-07T07:03:40;26.93;;;16.40;;
13799;SDS011;6971;50.028;9.258;2022-12-07T07:08:41;28.20;;;18.37;;
13799;SDS011;6971;50.028;9.258;2022-12-07T07:13:43;30.50;;;19.53;;
13799;SDS011;6971;50.028;9.258;2022-12-07T07:18:45;29.90;;;19.07;;
13799;SDS011;6971;50.028;9.258;2022-12-07T07:23:45;32.17;;;18.73;;
13799;SDS011;6971;50.028;9.258;2022-12-07T07:28:46;27.17;;;15.67;;
13799;SDS011;6971;50.028;9.258;2022-12-07T07:33:47;24.33;;;14.77;;
13799;SDS011;6971;50.028;9.258;2022-12-07T07:38:48;27.23;;;15.90;;
13799;SDS011;6971;50.028;9.258;2022-12-07T07:43:49;24.83;;;15.53;;
13799;SDS011;6971;50.028;9.258;2022-12-07T07:48:56;23.43;;;15.80;;
13799;SDS011;6971;50.028;9.258;2022-12-07T07:53:57;33.83;;;22.73;;
13799;SDS011;6971;50.028;9.258;2022-12-07T07:58:59;27.27;;;15.80;;
13799;SDS011;6971;50.028;9.258;2022-12-07T08:04:00;27.40;;;16.23;;
13799;SDS011;6971;50.028;9.258;2022-12-07T08:09:02;38.07;;;21.07;;
13799;SDS011;6971;50.028;9.258;2022-12-07T08:14:06;32.07;;;19.97;;
13799;SDS011;6971;50.028;9.258;2022-12-07T08:19:07;27.73;;;17.23;;
13799;SDS011;6971;50.028;9.258;2022-12-07T08:24:08;26.77;;;16.30;;
13799;SDS011;6971;50.028;9.258;2022-12-07T08:29:10;25.00;;;15.33;;
13799;SDS011;6971;50.028;9.258;2022-12-07T08:34:11;23.00;;;15.57;;
13799;SDS011;6971;50.028;9.258;2022-12-07T08:39:12;20.70;;;14.27;;
13799;SDS011;6971;50.028;9.258;2022-12-07T08:44:13;25.07;;;17.23;;
13799;SDS011;6971;50.028;9.258;2022-12-07T08:54:18;31.10;;;17.13;;
13799;SDS011;6971;50.028;9.258;2022-12-07T08:59:20;31.40;;;17.13;;
13799;SDS011;6971;50.028;9.258;2022-12-07T09:04:22;26.73;;;18.17;;
13799;SDS011;6971;50.028;9.258;2022-12-07T09:09:23;23.87;;;17.47;;
13799;SDS011;6971;50.028;9.258;2022-12-07T09:14:23;23.03;;;15.53;;
13799;SDS011;6971;50.028;9.258;2022-12-07T09:19:25;28.57;;;18.13;;
13799;SDS011;6971;50.028;9.258;2022-12-07T09:24:26;25.93;;;15.53;;
13799;SDS011;6971;50.028;9.258;2022-12-07T09:29:27;26.07;;;19.93;;
13799;SDS011;6971;50.028;9.258;2022-12-07T09:34:30;24.33;;;15.50;;
13799;SDS011;6971;50.028;9.258;2022-12-07T09:39:32;25.93;;;15.17;;
13799;SDS011;6971;50.028;9.258;2022-12-07T09:44:34;23.07;;;17.77;;
13799;SDS011;6971;50.028;9.258;2022-12-07T09:49:35;21.40;;;14.57;;
13799;SDS011;6971;50.028;9.258;2022-12-07T09:54:39;20.30;;;14.80;;
13799;SDS011;6971;50.028;9.258;2022-12-07T09:59:44;23.77;;;15.83;;
13799;SDS011;6971;50.028;9.258;2022-12-07T10:04:45;18.50;;;12.23;;
13799;SDS011;6971;50.028;9.258;2022-12-07T10:09:46;20.73;;;14.43;;
13799;SDS011;6971;50.028;9.258;2022-12-07T10:15:00;21.67;;;14.37;;
13799;SDS011;6971;50.028;9.258;2022-12-07T10:25:18;18.33;;;12.93;;
13799;SDS011;6971;50.028;9.258;2022-12-07T10:30:21;14.37;;;10.87;;
13799;SDS011;6971;50.028;9.258;2022-12-07T10:35:33;22.60;;;14.77;;
13799;SDS011;6971;50.028;9.258;2022-12-07T10:41:04;17.27;;;13.00;;
13799;SDS011;6971;50.028;9.258;2022-12-07T11:07:38;14.73;;;10.10;;
13799;SDS011;6971;50.028;9.258;2022-12-07T11:29:13;14.53;;;9.07;;
13799;SDS011;6971;50.028;9.258;2022-12-07T11:39:52;13.30;;;9.77;;
13799;SDS011;6971;50.028;9.258;2022-12-07T11:45:02;11.53;;;8.43;;
13799;SDS011;6971;50.028;9.258;2022-12-07T11:55:21;9.67;;;7.83;;
13799;SDS011;6971;50.028;9.258;2022-12-07T12:00:29;22.00;;;10.80;;
13799;SDS011;6971;50.028;9.258;2022-12-07T12:05:33;40.60;;;29.80;;
13799;SDS011;6971;50.028;9.258;2022-12-07T12:10:37;12.63;;;9.07;;
13799;SDS011;6971;50.028;9.258;2022-12-07T12:21:10;9.60;;;8.10;;
13799;SDS011;6971;50.028;9.258;2022-12-07T12:26:20;9.63;;;8.20;;
13799;SDS011;6971;50.028;9.258;2022-12-07T12:36:43;10.80;;;8.20;;
13799;SDS011;6971;50.028;9.258;2022-12-07T12:51:50;11.27;;;8.10;;
13799;SDS011;6971;50.028;9.258;2022-12-07T12:56:58;10.27;;;7.47;;
13799;SDS011;6971;50.028;9.258;2022-12-07T13:02:24;7.43;;;5.93;;
13799;SDS011;6971;50.028;9.258;2022-12-07T13:12:58;8.63;;;6.03;;
13799;SDS011;6971;50.028;9.258;2022-12-07T13:28:44;9.53;;;6.40;;
13799;SDS011;6971;50.028;9.258;2022-12-07T13:33:46;8.90;;;7.20;;
13799;SDS011;6971;50.028;9.258;2022-12-07T13:38:49;8.43;;;6.00;;
13799;SDS011;6971;50.028;9.258;2022-12-07T13:44:02;10.50;;;7.83;;
13799;SDS011;6971;50.028;9.258;2022-12-07T13:49:15;8.67;;;6.77;;
13799;SDS011;6971;50.028;9.258;2022-12-07T13:54:19;8.70;;;6.70;;
13799;SDS011;6971;50.028;9.258;2022-12-07T13:59:22;10.03;;;6.70;;
13799;SDS011;6971;50.028;9.258;2022-12-07T14:09:34;10.53;;;7.07;;
13799;SDS011;6971;50.028;9.258;2022-12-07T14:14:35;26.33;;;17.87;;
13799;SDS011;6971;50.028;9.258;2022-12-07T14:25:11;7.43;;;5.47;;
13799;SDS011;6971;50.028;9.258;2022-12-07T14:30:20;8.87;;;5.87;;
13799;SDS011;6971;50.028;9.258;2022-12-07T14:35:21;6.97;;;4.30;;
13799;SDS011;6971;50.028;9.258;2022-12-07T14:40:24;7.93;;;6.33;;
13799;SDS011;6971;50.028;9.258;2022-12-07T14:45:28;8.10;;;4.83;;
13799;SDS011;6971;50.028;9.258;2022-12-07T14:50:29;5.70;;;4.50;;
13799;SDS011;6971;50.028;9.258;2022-12-07T14:55:31;8.70;;;4.90;;
13799;SDS011;6971;50.028;9.258;2022-12-07T15:00:32;8.53;;;5.47;;
13799;SDS011;6971;50.028;9.258;2022-12-07T15:05:34;9.63;;;5.33;;
13799;SDS011;6971;50.028;9.258;2022-12-07T15:10:36;5.43;;;4.93;;
13799;SDS011;6971;50.028;9.258;2022-12-07T15:15:39;11.10;;;5.70;;
13799;SDS011;6971;50.028;9.258;2022-12-07T15:20:41;9.70;;;5.13;;
13799;SDS011;6971;50.028;9.258;2022-12-07T15:25:43;7.03;;;6.00;;
13799;SDS011;6971;50.028;9.258;2022-12-07T15:30:44;27.87;;;17.50;;
13799;SDS011;6971;50.028;9.258;2022-12-07T15:35:46;16.13;;;13.37;;
13799;SDS011;6971;50.028;9.258;2022-12-07T15:40:46;14.43;;;10.00;;
13799;SDS011;6971;50.028;9.258;2022-12-07T15:45:49;14.30;;;10.33;;
13799;SDS011;6971;50.028;9.258;2022-12-07T15:50:50;17.03;;;13.93;;
13799;SDS011;6971;50.028;9.258;2022-12-07T15:55:51;17.07;;;13.00;;
13799;SDS011;6971;50.028;9.258;2022-12-07T16:00:53;13.60;;;11.53;;
13799;SDS011;6971;50.028;9.258;2022-12-07T16:05:54;12.43;;;8.13;;
13799;SDS011;6971;50.028;9.258;2022-12-07T16:10:55;9.30;;;7.30;;
13799;SDS011;6971;50.028;9.258;2022-12-07T16:15:56;10.97;;;7.73;;
13799;SDS011;6971;50.028;9.258;2022-12-07T16:20:58;10.03;;;7.77;;
13799;SDS011;6971;50.028;9.258;2022-12-07T16:26:06;14.03;;;9.87;;
13799;SDS011;6971;50.028;9.258;2022-12-07T16:31:11;13.03;;;8.90;;
13799;SDS011;6971;50.028;9.258;2022-12-07T16:36:14;15.63;;;11.23;;
13799;SDS011;6971;50.028;9.258;2022-12-07T16:41:18;17.17;;;11.83;;
13799;SDS011;6971;50.028;9.258;2022-12-07T16:46:19;12.60;;;10.30;;
13799;SDS011;6971;50.028;9.258;2022-12-07T16:51:20;15.93;;;9.77;;
13799;SDS011;6971;50.028;9.258;2022-12-07T16:56:21;17.17;;;11.57;;
13799;SDS011;6971;50.028;9.258;2022-12-07T17:01:23;18.57;;;13.30;;
13799;SDS011;6971;50.028;9.258;2022-12-07T17:06:24;21.53;;;15.00;;
13799;SDS011;6971;50.028;9.258;2022-12-07T17:11:29;16.97;;;11.10;;
13799;SDS011;6971;50.028;9.258;2022-12-07T17:16:33;15.20;;;10.93;;
13799;SDS011;6971;50.028;9.258;2022-12-07T17:21:35;19.30;;;14.03;;
13799;SDS011;6971;50.028;9.258;2022-12-07T17:26:36;18.23;;;11.63;;
13799;SDS011;6971;50.028;9.258;2022-12-07T17:31:38;15.17;;;10.67;;
13799;SDS011;6971;50.028;9.258;2022-12-07T17:36:39;21.80;;;15.90;;
13799;SDS011;6971;50.028;9.258;2022-12-07T17:41:41;19.67;;;13.57;;
13799;SDS011;6971;50.028;9.258;2022-12-07T17:47:00;17.10;;;11.20;;
13799;SDS011;6971;50.028;9.258;2022-12-07T17:52:03;21.00;;;11.43;;
13799;SDS011;6971;50.028;9.258;2022-12-07T17:57:23;21.13;;;14.60;;
13799;SDS011;6971;50.028;9.258;2022-12-07T18:02:24;24.97;;;12.87;;
13799;SDS011;6971;50.028;9.258;2022-12-07T18:07:26;18.10;;;12.30;;
13799;SDS011;6971;50.028;9.258;2022-12-07T18:12:27;19.83;;;12.87;;
13799;SDS011;6971;50.028;9.258;2022-12-07T18:17:28;25.97;;;17.37;;
13799;SDS011;6971;50.028;9.258;2022-12-07T18:22:28;28.87;;;18.43;;
13799;SDS011;6971;50.028;9.258;2022-12-07T18:27:30;27.80;;;19.07;;
13799;SDS011;6971;50.028;9.258;2022-12-07T18:32:31;21.40;;;16.50;;
13799;SDS011;6971;50.028;9.258;2022-12-07T18:37:33;21.77;;;17.13;;
13799;SDS011;6971;50.028;9.258;2022-12-07T18:42:34;21.90;;;15.07;;
13799;SDS011;6971;50.028;9.258;2022-12-07T18:47:35;23.77;;;15.00;;
13799;SDS011;6971;50.028;9.258;2022-12-07T18:52:36;22.17;;;13.70;;
13799;SDS011;6971;50.028;9.258;2022-12-07T18:57:37;21.67;;;16.83;;
13799;SDS011;6971;50.028;9.258;2022-12-07T19:02:38;21.30;;;14.87;;
13799;SDS011;6971;50.028;9.258;2022-12-07T19:07:38;25.37;;;16.00;;
13799;SDS011;6971;50.028;9.258;2022-12-07T19:12:39;21.03;;;14.77;;
13799;SDS011;6971;50.028;9.258;2022-12-07T19:17:41;27.87;;;14.83;;
13799;SDS011;6971;50.028;9.258;2022-12-07T19:22:41;23.43;;;17.03;;
13799;SDS011;6971;50.028;9.258;2022-12-07T19:27:44;24.57;;;14.60;;
13799;SDS011;6971;50.028;9.258;2022-12-07T19:32:45;22.43;;;16.07;;
13799;SDS011;6971;50.028;9.258;2022-12-07T19:37:46;25.13;;;16.93;;
13799;SDS011;6971;50.028;9.258;2022-12-07T19:42:46;27.17;;;16.90;;
13799;SDS011;6971;50.028;9.258;2022-12-07T19:47:47;25.27;;;16.93;;
13799;SDS011;6971;50.028;9.258;2022-12-07T19:52:47;26.87;;;16.73;;
13799;SDS011;6971;50.028;9.258;2022-12-07T19:57:49;21.47;;;16.70;;
13799;SDS011;6971;50.028;9.258;2022-12-07T20:02:52;23.30;;;17.13;;
13799;SDS011;6971;50.028;9.258;2022-12-07T20:07:54;24.80;;;15.97;;
13799;SDS011;6971;50.028;9.258;2022-12-07T20:12:54;32.90;;;18.47;;
13799;SDS011;6971;50.028;9.258;2022-12-07T20:18:14;33.00;;;23.27;;
13799;SDS011;6971;50.028;9.258;2022-12-07T20:23:15;36.90;;;24.93;;
13799;SDS011;6971;50.028;9.258;2022-12-07T20:28:16;30.43;;;20.53;;
13799;SDS011;6971;50.028;9.258;2022-12-07T20:33:17;33.03;;;21.10;;
13799;SDS011;6971;50.028;9.258;2022-12-07T20:38:19;28.57;;;20.70;;
13799;SDS011;6971;50.028;9.258;2022-12-07T20:43:20;27.27;;;17.30;;
13799;SDS011;6971;50.028;9.258;2022-12-07T20:48:21;26.57;;;18.07;;
13799;SDS011;6971;50.028;9.258;2022-12-07T20:53:23;33.97;;;21.37;;
13799;SDS011;6971;50.028;9.258;2022-12-07T20:58:24;32.43;;;21.90;;
13799;SDS011;6971;50.028;9.258;2022-12-07T21:03:26;31.93;;;21.20;;
13799;SDS011;6971;50.028;9.258;2022-12-07T21:08:26;30.07;;;21.53;;
13799;SDS011;6971;50.028;9.258;2022-12-07T21:13:27;30.63;;;20.30;;
13799;SDS011;6971;50.028;9.258;2022-12-07T21:18:28;31.47;;;22.20;;
13799;SDS011;6971;50.028;9.258;2022-12-07T21:23:29;35.53;;;24.27;;
13799;SDS011;6971;50.028;9.258;2022-12-07T21:28:30;30.53;;;21.93;;
13799;SDS011;6971;50.028;9.258;2022-12-07T21:33:31;31.37;;;21.30;;
13799;SDS011;6971;50.028;9.258;2022-12-07T21:38:33;36.03;;;23.63;;
13799;SDS011;6971;50.028;9.258;2022-12-07T21:43:34;29.00;;;21.30;;
13799;SDS011;6971;50.028;9.258;2022-12-07T21:48:35;28.93;;;21.57;;
13799;SDS011;6971;50.028;9.258;2022-12-07T21:53:36;33.47;;;24.57;;
13799;SDS011;6971;50.028;9.258;2022-12-07T21:58:38;35.63;;;22.63;;
13799;SDS011;6971;50.028;9.258;2022-12-07T22:03:47;35.97;;;24.37;;
13799;SDS011;6971;50.028;9.258;2022-12-07T22:08:49;35.77;;;24.13;;
13799;SDS011;6971;50.028;9.258;2022-12-07T22:13:51;34.00;;;22.00;;
13799;SDS011;6971;50.028;9.258;2022-12-07T22:19:10;34.57;;;21.87;;
13799;SDS011;6971;50.028;9.258;2022-12-07T22:24:13;31.67;;;22.23;;
13799;SDS011;6971;50.028;9.258;2022-12-07T22:29:15;37.77;;;23.67;;
13799;SDS011;6971;50.028;9.258;2022-12-07T22:34:16;41.63;;;26.93;;
13799;SDS011;6971;50.028;9.258;2022-12-07T22:39:17;38.53;;;26.70;;
13799;SDS011;6971;50.028;9.258;2022-12-07T22:44:18;37.97;;;25.97;;
13799;SDS011;6971;50.028;9.258;2022-12-07T22:49:19;38.30;;;26.27;;
13799;SDS011;6971;50.028;9.258;2022-12-07T22:54:20;36.83;;;24.90;;
13799;SDS011;6971;50.028;9.258;2022-12-07T22:59:21;37.27;;;24.97;;
13799;SDS011;6971;50.028;9.258;2022-12-07T23:04:21;39.53;;;23.97;;
13799;SDS011;6971;50.028;9.258;2022-12-07T23:09:22;41.67;;;24.93;;
13799;SDS011;6971;50.028;9.258;2022-12-07T23:14:25;41.93;;;26.13;;
13799;SDS011;6971;50.028;9.258;2022-12-07T23:19:42;40.57;;;26.87;;
13799;SDS011;6971;50.028;9.258;2022-12-07T23:24:43;42.57;;;25.67;;
13799;SDS011;6971;50.028;9.258;2022-12-07T23:29:44;38.37;;;25.73;;
13799;SDS011;6971;50.028;9.258;2022-12-07T23:34:45;38.40;;;23.97;;
13799;SDS011;6971;50.028;9.258;2022-12-07T23:39:46;36.33;;;22.93;;
13799;SDS011;6971;50.028;9.258;2022-12-07T23:44:47;37.23;;;24.53;;
13799;SDS011;6971;50.028;9.258;2022-12-07T23:49:48;42.40;;;24.73;;
13799;SDS011;6971;50.028;9.258;2022-12-07T23:54:49;36.20;;;23.43;;
13799;SDS011;6971;50.028;9.258;2022-12-07T23:59:50;37.83;;;23.57;;
